This is the latest recevied weather packets stored in our database for station/object K7AEL. If no packets are shown the sender has not sent any weather packets the latest 1 day(s).
| Time | Temp. | Humidity | Pressure | Rain* | Wind** | Luminosity | Snow |
|---|---|---|---|---|---|---|---|
| 1778007431 | 22.22° C | 52% | 1013 hPa | 0 mm | 1.34 m/s, 40° | 883 W/m² | - |
| 1778007127 | 21.67° C | 54% | 1013.2 hPa | 0 mm | 0.45 m/s, 215° | 226 W/m² | - |
| 1778006823 | 21.11° C | 57% | 1013.4 hPa | 0 mm | 0.45 m/s, 221° | 401 W/m² | - |
| 1778006521 | 20.56° C | 57% | 1013.2 hPa | 0 mm | 0.89 m/s, 293° | 152 W/m² | - |
| 1778006217 | 21.11° C | 56% | 1013.3 hPa | 0 mm | 1.34 m/s, 43° | 122 W/m² | - |
| 1778005915 | 21.67° C | 54% | 1013.3 hPa | 0 mm | 1.34 m/s, 331° | 633 W/m² | - |
| 1778005611 | 21.67° C | 54% | 1013.5 hPa | 0 mm | 0.89 m/s, 192° | 150 W/m² | - |
| 1778005308 | 21.67° C | 56% | 1013.6 hPa | 0 mm | 1.79 m/s, 130° | 246 W/m² | - |
| 1778005004 | 21.11° C | 57% | 1013.5 hPa | 0 mm | 0.45 m/s, 199° | 200 W/m² | - |
| 1778004702 | 20.56° C | 57% | 1013.6 hPa | 0 mm | 1.34 m/s, 189° | 453 W/m² | - |
| 1778004398 | 20.56° C | 57% | 1013.6 hPa | 0 mm | 0.45 m/s, 219° | 218 W/m² | - |
| 1778004096 | 21.11° C | 57% | 1013.6 hPa | 0 mm | 0.45 m/s, 226° | 141 W/m² | - |
| 1778003791 | 20.56° C | 56% | 1013.7 hPa | 0 mm | 0 m/s | 317 W/m² | - |
| 1778003488 | 20° C | 58% | 1013.8 hPa | 0 mm | 0.45 m/s, 190° | 874 W/m² | - |
| 1778003185 | 19.44° C | 61% | 1013.8 hPa | 0 mm | 0 m/s | 169 W/m² | - |
| 1778002881 | 20° C | 61% | 1013.8 hPa | 0 mm | 0.89 m/s, 271° | 178 W/m² | - |
| 1778002578 | 19.44° C | 62% | 1014 hPa | 0 mm | 0.45 m/s, 194° | 201 W/m² | - |
| 1778002274 | 19.44° C | 61% | 1014 hPa | 0 mm | 0 m/s | 117 W/m² | - |
| 1778001972 | 19.44° C | 62% | 1013.9 hPa | 0 mm | 0.89 m/s, 254° | 127 W/m² | - |
| 1778001669 | 20° C | 61% | 1014 hPa | 0 mm | 0.89 m/s, 179° | 177 W/m² | - |
| 1778001363 | 20° C | 60% | 1013.9 hPa | 0 mm | 1.79 m/s, 11° | 605 W/m² | - |
| 1778001061 | 20° C | 60% | 1013.9 hPa | 0 mm | 0.45 m/s, 244° | 158 W/m² | - |
| 1778000757 | 20° C | 59% | 1013.9 hPa | 0 mm | 0.45 m/s, 195° | 820 W/m² | - |
| 1778000454 | 20° C | 60% | 1013.9 hPa | 0 mm | 0.45 m/s, 222° | 214 W/m² | - |
| 1778000149 | 20° C | 59% | 1013.8 hPa | 0 mm | 1.34 m/s, 223° | 666 W/m² | - |
* Rain latest hour (hover to see other rain measurements)
** Current wind speed in m/s (hover to see current wind gust speed)